Time;durP1;ratioP1;P1;durP2;ratioP2;P2;SDS_P1;SDS_P2;PMS_P1;PMS_P2;Temp;Humidity;BMP_temperature;BMP_pressure;BME280_temperature;BME280_humidity;BME280_pressure;Samples;Min_cycle;Max_cycle;Signal;HPM_P1;HPM_P2
2022/03/29 00:00:53;;;;;;;95.25;41.13;;;4.00;84.80;;;;;;5014659;28;20032;-83
2022/03/29 00:03:18;;;;;;;94.68;43.67;;;3.90;85.90;;;;;;5014661;28;20038;-83
2022/03/29 00:05:44;;;;;;;156.00;70.88;;;3.90;85.90;;;;;;5014624;28;20116;-83
2022/03/29 00:08:09;;;;;;;118.13;55.63;;;3.90;86.40;;;;;;5014464;28;20029;-83
2022/03/29 00:10:35;;;;;;;125.60;55.70;;;3.80;86.70;;;;;;5013325;28;20018;-83
2022/03/29 00:13:01;;;;;;;114.40;53.22;;;3.90;86.70;;;;;;5014830;28;20022;-83
2022/03/29 00:15:28;;;;;;;111.68;49.72;;;3.90;86.40;;;;;;5014246;28;20053;-83
2022/03/29 00:17:54;;;;;;;108.45;51.45;;;3.90;85.70;;;;;;5013167;28;20058;-82
2022/03/29 00:20:20;;;;;;;95.35;43.85;;;3.90;85.80;;;;;;5014484;28;20033;-83
2022/03/29 00:22:50;;;;;;;103.10;46.33;;;3.80;86.70;;;;;;5014245;28;20076;-83
2022/03/29 00:25:16;;;;;;;106.55;46.80;;;3.90;87.20;;;;;;5014816;28;20387;-83
2022/03/29 00:27:42;;;;;;;96.20;44.28;;;3.90;87.80;;;;;;5012904;28;20088;-83
2022/03/29 00:30:11;;;;;;;100.65;47.47;;;3.90;87.80;;;;;;5014144;28;20021;-83
2022/03/29 00:32:39;;;;;;;84.30;38.70;;;3.90;88.00;;;;;;5013796;28;20025;-83
2022/03/29 00:35:05;;;;;;;66.38;31.15;;;4.00;88.00;;;;;;5013199;28;20018;-83
2022/03/29 00:37:31;;;;;;;70.00;36.28;;;4.00;88.20;;;;;;5013823;28;20026;-83
2022/03/29 00:39:57;;;;;;;67.75;32.33;;;4.00;88.60;;;;;;5014004;28;20380;-83
2022/03/29 00:42:22;;;;;;;60.58;30.20;;;4.10;88.90;;;;;;5014165;28;20018;-83
2022/03/29 00:44:48;;;;;;;60.78;30.95;;;4.10;88.50;;;;;;5013925;28;20101;-83
2022/03/29 00:47:15;;;;;;;63.72;33.13;;;4.20;88.70;;;;;;5014299;28;20030;-83
2022/03/29 00:49:41;;;;;;;68.13;34.10;;;4.20;89.60;;;;;;5014129;28;20101;-83
2022/03/29 00:52:09;;;;;;;63.65;31.77;;;4.30;91.20;;;;;;5013897;28;20164;-83
2022/03/29 00:54:38;;;;;;;65.95;32.83;;;4.30;93.70;;;;;;5013597;28;20030;-83
2022/03/29 00:57:05;;;;;;;59.15;33.22;;;4.40;98.30;;;;;;5013901;28;20026;-83
2022/03/29 00:59:31;;;;;;;64.55;30.20;;;4.50;98.90;;;;;;5013762;28;20475;-83
2022/03/29 01:01:57;;;;;;;50.22;27.60;;;4.60;99.90;;;;;;5013563;28;20032;-82
2022/03/29 01:04:25;;;;;;;56.97;29.08;;;4.60;99.90;;;;;;5013437;28;20037;-84
2022/03/29 01:06:52;;;;;;;59.13;31.13;;;4.70;98.30;;;;;;5013898;28;20041;-83
2022/03/29 01:09:18;;;;;;;76.35;36.25;;;4.70;98.10;;;;;;5013602;28;20021;-83
2022/03/29 01:11:43;;;;;;;69.88;35.92;;;4.80;95.60;;;;;;5013525;28;20097;-84
2022/03/29 01:14:09;;;;;;;65.68;32.50;;;4.70;95.20;;;;;;5013370;28;20041;-82
2022/03/29 01:19:21;;;;;;;55.58;29.60;;;4.80;96.20;;;;;;5013573;28;20041;-83
2022/03/29 01:21:57;;;;;;;47.65;24.90;;;4.90;96.90;;;;;;5012200;28;20016;-83
2022/03/29 01:24:25;;;;;;;46.60;25.52;;;4.90;97.50;;;;;;5013363;28;20038;-83
2022/03/29 01:26:52;;;;;;;53.85;25.42;;;5.00;96.90;;;;;;5013329;28;20430;-83
2022/03/29 01:29:20;;;;;;;47.88;26.77;;;5.10;97.00;;;;;;5013509;28;20033;-83
2022/03/29 01:31:46;;;;;;;47.45;26.20;;;5.20;98.70;;;;;;5012106;28;20049;-83
2022/03/29 01:34:12;;;;;;;57.38;29.90;;;5.30;99.30;;;;;;5013382;28;20086;-82
2022/03/29 01:36:38;;;;;;;77.18;35.95;;;5.30;99.90;;;;;;5013208;28;20431;-83
2022/03/29 01:39:03;;;;;;;67.50;32.22;;;5.30;99.90;;;;;;5013420;28;20028;-83
2022/03/29 01:41:30;;;;;;;71.47;36.10;;;5.30;99.90;;;;;;5013129;28;20030;-83
2022/03/29 01:43:56;;;;;;;47.97;26.63;;;5.40;99.90;;;;;;5012393;28;20619;-83
2022/03/29 01:46:23;;;;;;;49.88;25.33;;;5.40;99.90;;;;;;5017412;28;20045;-83
2022/03/29 01:48:50;;;;;;;49.60;27.50;;;5.50;99.90;;;;;;5017089;28;20052;-83
2022/03/29 01:51:16;;;;;;;48.05;28.45;;;5.50;99.90;;;;;;5017226;28;20072;-83
2022/03/29 01:53:42;;;;;;;56.50;28.90;;;5.50;99.90;;;;;;5017341;28;20034;-83
2022/03/29 01:56:07;;;;;;;66.90;34.80;;;5.50;99.90;;;;;;5016990;28;20026;-83
2022/03/29 01:58:33;;;;;;;73.20;35.78;;;5.40;99.90;;;;;;5015828;28;20029;-83
2022/03/29 02:00:59;;;;;;;69.85;35.50;;;5.30;99.90;;;;;;5017146;28;20029;-83
2022/03/29 02:03:25;;;;;;;68.00;35.00;;;5.30;99.90;;;;;;5016955;28;20037;-83
2022/03/29 02:05:51;;;;;;;54.88;30.70;;;5.30;99.90;;;;;;5017135;28;20025;-83
2022/03/29 02:08:16;;;;;;;57.83;31.05;;;5.30;99.90;;;;;;5016769;28;20088;-83
2022/03/29 02:10:43;;;;;;;57.88;30.98;;;5.40;99.90;;;;;;5017017;28;20065;-83
2022/03/29 02:13:09;;;;;;;58.30;30.88;;;5.40;99.90;;;;;;5017105;28;20034;-83
2022/03/29 02:15:37;;;;;;;57.80;29.23;;;5.40;99.90;;;;;;5016580;28;20042;-83
2022/03/29 02:18:03;;;;;;;54.33;28.85;;;5.40;99.90;;;;;;5016820;28;20041;-83
2022/03/29 02:20:28;;;;;;;57.10;28.80;;;5.40;99.90;;;;;;5015489;28;20022;-83
2022/03/29 02:22:54;;;;;;;50.80;28.08;;;5.30;99.90;;;;;;5016581;28;20442;-83
2022/03/29 02:25:21;;;;;;;54.08;28.98;;;5.30;99.90;;;;;;5016384;28;20595;-83
2022/03/29 02:27:47;;;;;;;46.25;27.17;;;5.30;99.90;;;;;;5016518;28;20112;-83
2022/03/29 02:30:14;;;;;;;48.72;24.63;;;5.30;99.90;;;;;;5016629;28;20053;-83
2022/03/29 02:32:41;;;;;;;46.42;25.13;;;5.20;99.90;;;;;;5015055;28;20395;-83
2022/03/29 02:35:07;;;;;;;45.58;24.52;;;5.30;99.90;;;;;;5016295;28;20022;-83
2022/03/29 02:37:33;;;;;;;48.33;23.35;;;5.50;99.90;;;;;;5016514;28;20024;-83
2022/03/29 02:39:59;;;;;;;52.33;26.67;;;5.40;99.90;;;;;;5016374;28;20018;-83
2022/03/29 02:42:25;;;;;;;54.35;27.95;;;5.50;99.90;;;;;;5016010;28;20029;-83
2022/03/29 02:44:51;;;;;;;60.28;30.25;;;5.40;99.90;;;;;;5016148;28;20049;-83
2022/03/29 02:47:16;;;;;;;60.08;28.60;;;5.20;99.90;;;;;;5016023;28;20037;-83
2022/03/29 02:49:42;;;;;;;54.97;27.90;;;5.10;99.90;;;;;;5016091;28;20018;-83
2022/03/29 02:52:07;;;;;;;51.00;28.25;;;5.00;99.90;;;;;;5014854;28;20028;-83
2022/03/29 02:54:34;;;;;;;59.63;30.40;;;5.00;99.90;;;;;;5015825;28;20033;-82
2022/03/29 02:57:02;;;;;;;55.95;30.42;;;5.00;99.90;;;;;;5015850;28;20017;-83
2022/03/29 02:59:28;;;;;;;60.33;31.25;;;4.90;99.90;;;;;;5015686;28;20030;-83
2022/03/29 03:01:53;;;;;;;68.43;41.05;;;4.80;99.90;;;;;;5016010;28;20389;-83
2022/03/29 03:04:19;;;;;;;61.72;34.63;;;4.80;99.90;;;;;;5015711;28;20172;-82
2022/03/29 03:06:44;;;;;;;57.33;31.98;;;4.70;99.90;;;;;;5015893;28;20383;-82
2022/03/29 03:09:10;;;;;;;54.08;30.42;;;4.70;99.90;;;;;;5016104;28;20030;-83
2022/03/29 03:11:36;;;;;;;55.20;29.77;;;4.70;99.90;;;;;;5015755;28;20352;-82
2022/03/29 03:14:02;;;;;;;55.85;29.08;;;4.70;99.90;;;;;;5015317;28;20412;-83
2022/03/29 03:16:28;;;;;;;52.00;28.00;;;4.70;99.90;;;;;;5015708;28;20030;-83
2022/03/29 03:18:53;;;;;;;50.53;26.98;;;4.80;99.90;;;;;;5014270;28;20041;-82
2022/03/29 03:21:19;;;;;;;58.33;29.58;;;4.80;99.90;;;;;;5015652;28;20018;-84
2022/03/29 03:23:44;;;;;;;55.28;27.65;;;4.80;99.90;;;;;;5015206;28;20121;-83
2022/03/29 03:26:10;;;;;;;48.28;27.77;;;4.80;99.90;;;;;;5015366;28;20033;-82
2022/03/29 03:28:36;;;;;;;48.88;27.27;;;4.70;99.90;;;;;;5014121;28;20022;-83
2022/03/29 03:31:02;;;;;;;44.63;24.40;;;4.70;99.90;;;;;;5015704;28;20376;-82
2022/03/29 03:33:27;;;;;;;41.95;24.63;;;4.70;99.90;;;;;;5015725;28;20018;-82
2022/03/29 03:35:53;;;;;;;45.85;25.33;;;4.70;99.90;;;;;;5015474;28;20030;-83
2022/03/29 03:38:18;;;;;;;49.35;26.92;;;4.60;99.90;;;;;;5015494;28;20080;-82
2022/03/29 03:40:44;;;;;;;49.38;25.17;;;4.60;99.90;;;;;;5015115;28;20021;-83
2022/03/29 03:43:10;;;;;;;49.60;26.92;;;4.60;99.90;;;;;;5013652;28;20033;-82
2022/03/29 03:45:36;;;;;;;49.50;26.88;;;4.50;99.90;;;;;;5015067;28;20022;-82
2022/03/29 03:48:03;;;;;;;48.15;28.45;;;4.40;99.90;;;;;;5019675;28;20028;-82
2022/03/29 03:50:28;;;;;;;53.55;28.88;;;4.40;99.90;;;;;;5034884;28;20030;-83
2022/03/29 03:52:54;;;;;;;55.20;29.92;;;4.30;99.90;;;;;;5034847;28;20479;-83
2022/03/29 03:55:21;;;;;;;52.20;29.92;;;4.20;99.90;;;;;;5033220;28;20348;-81
2022/03/29 03:57:48;;;;;;;57.58;28.77;;;4.20;99.90;;;;;;5034645;28;20021;-80
2022/03/29 04:00:14;;;;;;;67.30;39.28;;;4.10;99.90;;;;;;5034608;28;20048;-80
2022/03/29 04:02:40;;;;;;;84.25;54.58;;;4.10;99.90;;;;;;5034516;28;20391;-80
2022/03/29 04:05:13;;;;;;;101.70;58.28;;;4.10;99.90;;;;;;5034359;28;20032;-81
2022/03/29 04:07:39;;;;;;;73.28;44.97;;;4.00;99.90;;;;;;5033758;28;20412;-79
2022/03/29 04:10:07;;;;;;;72.18;37.03;;;4.00;99.90;;;;;;5034360;28;20079;-80
2022/03/29 04:12:33;;;;;;;68.28;36.35;;;4.10;99.90;;;;;;5034430;28;20026;-80
2022/03/29 04:14:58;;;;;;;73.07;38.60;;;4.10;99.90;;;;;;5034213;28;20056;-80
2022/03/29 04:17:24;;;;;;;70.45;38.28;;;4.20;99.90;;;;;;5033669;28;20022;-80
2022/03/29 04:19:49;;;;;;;73.10;39.05;;;4.20;99.90;;;;;;5014491;28;20025;-81
2022/03/29 04:22:18;;;;;;;61.67;34.47;;;4.20;99.90;;;;;;5014491;28;20060;-80
2022/03/29 04:24:47;;;;;;;67.30;36.00;;;4.20;99.90;;;;;;5014375;28;20034;-80
2022/03/29 04:27:13;;;;;;;69.32;38.78;;;4.20;99.90;;;;;;5014421;28;20395;-80
2022/03/29 04:29:38;;;;;;;70.38;35.45;;;4.20;99.90;;;;;;5014678;28;20022;-80
2022/03/29 04:32:04;;;;;;;73.30;37.88;;;4.20;99.90;;;;;;5014103;28;20379;-80
2022/03/29 04:34:30;;;;;;;69.57;38.05;;;4.30;99.90;;;;;;5014236;28;20087;-80
2022/03/29 04:36:58;;;;;;;77.85;40.35;;;4.20;99.90;;;;;;5012782;28;20064;-80
2022/03/29 04:39:24;;;;;;;72.47;37.50;;;4.20;99.90;;;;;;5014081;28;20029;-81
2022/03/29 04:41:50;;;;;;;75.22;37.03;;;4.20;99.90;;;;;;5013844;28;20029;-80
2022/03/29 04:44:16;;;;;;;69.85;35.65;;;4.20;99.90;;;;;;5014209;28;20034;-80
2022/03/29 04:46:42;;;;;;;76.03;37.83;;;4.20;99.90;;;;;;5012802;28;20156;-81
2022/03/29 04:49:07;;;;;;;80.35;40.65;;;4.20;99.90;;;;;;5014149;28;20168;-80
2022/03/29 04:51:34;;;;;;;85.03;41.97;;;4.20;99.90;;;;;;5016690;28;20033;-80
2022/03/29 04:54:01;;;;;;;72.13;38.05;;;4.20;99.90;;;;;;5014049;28;20148;-79
2022/03/29 04:56:27;;;;;;;72.68;36.72;;;4.20;99.90;;;;;;5014102;28;20467;-80
2022/03/29 04:58:53;;;;;;;73.93;37.60;;;4.30;99.90;;;;;;5012349;28;20044;-80
2022/03/29 05:01:18;;;;;;;72.95;35.83;;;4.30;99.90;;;;;;5013564;28;20026;-81
2022/03/29 05:03:44;;;;;;;74.68;36.38;;;4.20;99.90;;;;;;5015303;28;20034;-80
2022/03/29 05:06:10;;;;;;;67.68;33.10;;;4.30;99.90;;;;;;5026153;28;20083;-80
2022/03/29 05:08:35;;;;;;;71.88;36.15;;;4.30;99.90;;;;;;5029259;28;20025;-80
2022/03/29 05:11:01;;;;;;;71.80;35.72;;;4.40;99.90;;;;;;5015948;28;20033;-80
2022/03/29 05:13:28;;;;;;;73.85;36.72;;;4.40;99.90;;;;;;5009578;28;20065;-79
2022/03/29 05:15:56;;;;;;;71.93;37.55;;;4.50;99.90;;;;;;5011378;28;20042;-81
2022/03/29 05:18:22;;;;;;;67.25;35.78;;;4.50;99.90;;;;;;5012315;28;20037;-81
2022/03/29 05:20:48;;;;;;;64.10;35.50;;;4.50;99.90;;;;;;5012070;28;20360;-80
2022/03/29 05:23:16;;;;;;;66.75;34.63;;;4.40;99.90;;;;;;4998075;28;20050;-80
2022/03/29 05:25:42;;;;;;;75.70;39.45;;;4.40;99.90;;;;;;5000184;28;20017;-81
2022/03/29 05:28:09;;;;;;;70.13;37.75;;;4.40;99.90;;;;;;5012249;28;20032;-81
2022/03/29 05:30:35;;;;;;;68.35;42.45;;;4.40;99.90;;;;;;5010436;28;20376;-81
2022/03/29 05:33:01;;;;;;;72.20;39.10;;;4.50;99.90;;;;;;5011809;28;20066;-81
2022/03/29 05:35:33;;;;;;;68.68;37.22;;;4.50;99.90;;;;;;5011526;28;20029;-81
2022/03/29 05:38:02;;;;;;;67.68;34.25;;;4.70;99.90;;;;;;5012275;28;20030;-81
2022/03/29 05:40:28;;;;;;;63.83;35.88;;;4.80;99.90;;;;;;5011756;28;20026;-81
2022/03/29 05:42:56;;;;;;;66.93;36.10;;;4.90;99.90;;;;;;5012393;28;20022;-81
2022/03/29 05:45:22;;;;;;;69.88;35.83;;;5.00;99.90;;;;;;5011151;28;20034;-82
2022/03/29 05:50:32;;;;;;;71.50;37.67;;;5.20;99.90;;;;;;5012229;28;20495;-81
2022/03/29 05:52:58;;;;;;;66.72;36.08;;;5.30;99.90;;;;;;5012462;28;20026;-81
2022/03/29 05:55:25;;;;;;;60.03;32.60;;;5.40;99.90;;;;;;5012921;28;20033;-81
2022/03/29 05:57:52;;;;;;;64.82;35.67;;;5.50;99.90;;;;;;5009044;28;20495;-81
2022/03/29 06:00:18;;;;;;;67.30;36.05;;;5.60;99.90;;;;;;4992605;28;20030;-81
2022/03/29 06:02:44;;;;;;;73.45;35.58;;;5.70;99.90;;;;;;5011430;28;20667;-82
2022/03/29 06:05:11;;;;;;;66.78;33.53;;;5.80;99.90;;;;;;5013637;28;20113;-81
2022/03/29 06:07:36;;;;;;;63.00;34.83;;;5.90;99.90;;;;;;5020438;28;20038;-81
2022/03/29 06:10:04;;;;;;;66.18;33.75;;;6.00;99.90;;;;;;5019725;28;20430;-81
2022/03/29 06:12:30;;;;;;;61.35;33.58;;;6.10;99.90;;;;;;5016632;28;20026;-81
2022/03/29 06:14:56;;;;;;;60.33;33.17;;;6.20;99.90;;;;;;5015661;28;20053;-81
2022/03/29 06:17:21;;;;;;;62.83;33.75;;;6.30;99.90;;;;;;5024489;28;20034;-82
2022/03/29 06:19:47;;;;;;;62.33;32.55;;;6.50;99.90;;;;;;5021032;28;20028;-81
2022/03/29 06:22:13;;;;;;;57.33;32.20;;;6.60;99.90;;;;;;5020495;28;20022;-80
2022/03/29 06:24:39;;;;;;;64.60;32.88;;;6.80;99.90;;;;;;5020236;28;20037;-81
2022/03/29 06:27:05;;;;;;;56.78;30.13;;;6.90;99.90;;;;;;5019033;28;20022;-82
2022/03/29 06:29:31;;;;;;;56.70;31.75;;;7.00;99.90;;;;;;5020566;28;20018;-81
2022/03/29 06:31:58;;;;;;;58.40;29.83;;;7.20;99.90;;;;;;5033597;28;20041;-82
2022/03/29 06:34:24;;;;;;;48.22;28.45;;;7.30;99.90;;;;;;5029962;28;20022;-81
2022/03/29 06:36:50;;;;;;;45.75;25.75;;;7.50;99.90;;;;;;5013564;28;20099;-81
2022/03/29 06:39:16;;;;;;;43.53;24.02;;;7.60;99.90;;;;;;5013385;28;20050;-80
2022/03/29 06:41:42;;;;;;;45.05;24.38;;;7.80;99.90;;;;;;5012889;28;20026;-81
2022/03/29 06:44:09;;;;;;;43.40;24.17;;;7.90;99.90;;;;;;5013360;28;20439;-81
2022/03/29 06:46:35;;;;;;;39.38;22.83;;;8.00;99.90;;;;;;5012120;28;20022;-81
2022/03/29 06:49:02;;;;;;;42.08;21.73;;;8.10;99.90;;;;;;5014879;28;20034;-82
2022/03/29 06:51:29;;;;;;;39.55;21.98;;;8.30;99.90;;;;;;5014642;28;20076;-82
2022/03/29 06:53:55;;;;;;;38.13;22.08;;;8.40;99.90;;;;;;5013801;28;20026;-82
2022/03/29 06:56:21;;;;;;;42.90;22.52;;;8.50;99.90;;;;;;5014966;28;20106;-82
2022/03/29 06:58:46;;;;;;;35.28;21.27;;;8.70;99.90;;;;;;5014759;28;20038;-81
2022/03/29 07:01:12;;;;;;;33.70;19.33;;;8.80;99.90;;;;;;5015184;28;20383;-82
2022/03/29 07:03:38;;;;;;;34.85;20.35;;;9.00;99.90;;;;;;5013775;28;20085;-82
2022/03/29 07:06:04;;;;;;;32.97;19.13;;;9.10;99.90;;;;;;4999950;28;20019;-84
2022/03/29 07:08:30;;;;;;;34.83;18.58;;;9.20;99.40;;;;;;4994712;28;20030;-84
2022/03/29 07:13:44;;;;;;;30.52;18.30;;;9.40;98.60;;;;;;4993999;28;20038;-83
2022/03/29 07:16:12;;;;;;;31.48;17.70;;;9.40;93.80;;;;;;5011547;28;20030;-81
2022/03/29 07:18:38;;;;;;;33.17;18.45;;;9.60;96.30;;;;;;5013065;28;20137;-82
2022/03/29 07:21:04;;;;;;;28.98;17.25;;;9.60;93.40;;;;;;5014045;28;20080;-80
2022/03/29 07:23:30;;;;;;;27.00;16.33;;;9.60;90.20;;;;;;5014305;28;20050;-82
2022/03/29 07:25:56;;;;;;;31.13;17.35;;;9.70;86.40;;;;;;5012661;28;20065;-82
2022/03/29 07:28:23;;;;;;;30.55;15.98;;;9.80;85.20;;;;;;5014029;28;20041;-82
2022/03/29 07:30:49;;;;;;;38.58;21.00;;;9.80;87.00;;;;;;5014143;28;20033;-82
2022/03/29 07:33:17;;;;;;;111.82;45.90;;;9.90;85.00;;;;;;5010612;28;20502;-84
2022/03/29 07:35:46;;;;;;;122.80;50.65;;;9.90;81.10;;;;;;5013303;28;20026;-84
2022/03/29 07:38:12;;;;;;;75.53;39.58;;;10.00;79.60;;;;;;5013694;28;20034;-83
2022/03/29 07:40:40;;;;;;;32.38;19.30;;;10.00;78.60;;;;;;5014415;28;20121;-83
2022/03/29 07:43:06;;;;;;;41.70;26.70;;;10.10;76.90;;;;;;5009336;28;20034;-83
2022/03/29 07:45:32;;;;;;;30.00;15.57;;;10.10;74.60;;;;;;5014158;28;20076;-84
2022/03/29 07:48:03;;;;;;;57.03;30.52;;;10.10;74.30;;;;;;5011447;28;20041;-84
2022/03/29 07:50:30;;;;;;;24.45;14.52;;;10.20;73.90;;;;;;5013926;28;20049;-84
2022/03/29 07:52:59;;;;;;;24.13;13.73;;;10.20;73.20;;;;;;5012271;28;20099;-83
2022/03/29 07:55:25;;;;;;;99.38;51.03;;;10.10;72.50;;;;;;5013820;28;20022;-82
2022/03/29 07:57:51;;;;;;;55.10;29.70;;;10.20;74.10;;;;;;5013753;28;20096;-82
2022/03/29 08:00:33;;;;;;;36.00;19.95;;;10.30;73.60;;;;;;5001175;28;20370;-83
2022/03/29 08:03:07;;;;;;;21.65;13.02;;;10.40;72.90;;;;;;4991436;28;20092;-83
2022/03/29 08:05:34;;;;;;;22.65;13.93;;;10.30;71.80;;;;;;4994371;28;20030;-83
2022/03/29 08:08:01;;;;;;;33.70;21.17;;;10.30;71.70;;;;;;4993514;28;20122;-83
2022/03/29 08:10:29;;;;;;;26.92;14.57;;;10.50;73.40;;;;;;4992704;28;20030;-83
2022/03/29 08:12:56;;;;;;;21.48;12.80;;;10.70;72.30;;;;;;4994326;28;20097;-83
2022/03/29 08:15:23;;;;;;;19.67;12.68;;;10.60;71.50;;;;;;5011934;28;20109;-83
2022/03/29 08:17:48;;;;;;;27.58;15.93;;;10.70;70.60;;;;;;5011152;28;20105;-82
2022/03/29 08:20:15;;;;;;;20.58;12.77;;;10.80;71.20;;;;;;5011720;28;20109;-82
2022/03/29 08:22:47;;;;;;;22.13;12.73;;;10.90;70.40;;;;;;5012450;28;20033;-83
2022/03/29 08:25:14;;;;;;;21.75;14.85;;;10.80;69.20;;;;;;5012571;28;20034;-83
2022/03/29 08:27:40;;;;;;;23.17;14.32;;;10.90;69.50;;;;;;5010710;28;20539;-82
2022/03/29 08:30:07;;;;;;;22.63;13.48;;;10.90;69.60;;;;;;5012253;28;20077;-84
2022/03/29 08:32:35;;;;;;;21.27;13.65;;;11.00;69.30;;;;;;5011019;28;20438;-83
2022/03/29 08:35:01;;;;;;;22.05;13.20;;;11.00;69.80;;;;;;5011034;28;20188;-83
2022/03/29 08:37:27;;;;;;;19.75;11.55;;;11.10;68.90;;;;;;5012725;28;20034;-83
2022/03/29 08:39:52;;;;;;;20.15;12.45;;;11.20;68.70;;;;;;5012661;28;20137;-83
2022/03/29 08:42:18;;;;;;;16.02;10.95;;;11.40;68.10;;;;;;5012973;28;20367;-83
2022/03/29 08:44:47;;;;;;;16.80;10.85;;;11.50;66.60;;;;;;5012920;28;20046;-84
2022/03/29 08:47:15;;;;;;;14.45;10.02;;;11.40;65.50;;;;;;5012177;28;20557;-82
2022/03/29 08:49:43;;;;;;;14.30;9.88;;;11.40;64.90;;;;;;5012950;28;20034;-82
2022/03/29 08:52:11;;;;;;;17.83;11.35;;;11.20;63.70;;;;;;5012588;28;20022;-82
2022/03/29 08:54:37;;;;;;;17.08;10.43;;;11.30;64.60;;;;;;5010474;28;20032;-81
2022/03/29 08:57:03;;;;;;;14.40;9.00;;;11.30;64.10;;;;;;5008867;28;20018;-82
2022/03/29 08:59:28;;;;;;;14.63;8.95;;;11.20;63.80;;;;;;5008137;28;20041;-81
2022/03/29 09:02:07;;;;;;;15.57;10.40;;;11.30;63.90;;;;;;5011887;28;20060;-83
2022/03/29 09:04:33;;;;;;;18.08;10.65;;;11.20;64.00;;;;;;5012003;28;20049;-82
2022/03/29 09:07:01;;;;;;;18.77;10.00;;;11.20;64.30;;;;;;5010767;28;20030;-82
2022/03/29 09:09:30;;;;;;;14.77;9.52;;;11.40;63.70;;;;;;5010410;28;20491;-83
2022/03/29 09:11:59;;;;;;;15.60;10.27;;;11.40;63.50;;;;;;5010895;28;20026;-83
2022/03/29 09:14:30;;;;;;;15.68;9.85;;;11.30;62.80;;;;;;5011732;28;20057;-83
2022/03/29 09:16:56;;;;;;;16.02;10.52;;;11.50;63.50;;;;;;5010726;28;20026;-83
2022/03/29 09:19:25;;;;;;;17.13;9.85;;;11.70;62.70;;;;;;5012308;28;20399;-83
2022/03/29 09:21:53;;;;;;;17.75;9.27;;;11.90;63.30;;;;;;5012421;28;20037;-83
2022/03/29 09:24:20;;;;;;;17.85;9.80;;;11.80;61.70;;;;;;5011922;28;20042;-82
2022/03/29 09:26:51;;;;;;;25.23;15.25;;;12.00;62.20;;;;;;5012559;28;20030;-83
2022/03/29 09:29:16;;;;;;;21.80;12.15;;;12.10;61.50;;;;;;5011875;28;20038;-82
2022/03/29 09:31:43;;;;;;;14.80;9.95;;;12.20;61.10;;;;;;5011734;28;20490;-83
2022/03/29 09:34:13;;;;;;;16.35;8.98;;;12.20;60.80;;;;;;5010268;28;20034;-82
2022/03/29 09:36:44;;;;;;;16.58;10.57;;;12.10;61.20;;;;;;5012403;28;20026;-83
2022/03/29 09:39:32;;;;;;;14.68;8.73;;;12.20;61.40;;;;;;5011713;28;20388;-83
2022/03/29 09:41:59;;;;;;;20.67;10.40;;;12.30;60.80;;;;;;5011764;28;20104;-83
2022/03/29 09:44:54;;;;;;;18.55;10.13;;;12.50;60.60;;;;;;5011744;28;20117;-82
2022/03/29 09:47:21;;;;;;;19.40;10.30;;;12.40;60.30;;;;;;5009966;28;20534;-82
2022/03/29 09:50:01;;;;;;;18.52;10.35;;;12.40;61.30;;;;;;5011898;28;20045;-82
2022/03/29 09:52:28;;;;;;;17.00;10.18;;;12.60;60.00;;;;;;5012430;28;20468;-82
2022/03/29 09:55:15;;;;;;;15.23;8.57;;;12.70;59.40;;;;;;5011705;28;20034;-82
2022/03/29 09:57:49;;;;;;;13.80;9.07;;;12.70;59.00;;;;;;5012143;28;20070;-82
2022/03/29 10:00:25;;;;;;;20.88;11.55;;;12.70;59.00;;;;;;4999924;28;20552;-82
2022/03/29 10:02:51;;;;;;;14.50;9.82;;;12.80;58.70;;;;;;4990991;28;20034;-82
2022/03/29 10:05:19;;;;;;;18.48;12.45;;;13.00;58.20;;;;;;4992984;28;20121;-82
2022/03/29 10:11:02;;;;;;;12.57;8.27;;;12.90;58.10;;;;;;4995270;28;20044;-82
2022/03/29 10:13:31;;;;;;;14.00;8.07;;;12.80;57.90;;;;;;4995579;28;20033;-83
2022/03/29 10:16:00;;;;;;;14.57;8.75;;;12.70;58.00;;;;;;5012215;28;20037;-83
2022/03/29 10:18:27;;;;;;;23.45;14.10;;;12.70;58.30;;;;;;5015175;28;20053;-83
2022/03/29 10:20:54;;;;;;;24.65;14.60;;;12.80;58.10;;;;;;5013590;28;20038;-83
2022/03/29 10:23:23;;;;;;;20.92;12.88;;;12.90;58.00;;;;;;5015288;28;20038;-82
2022/03/29 10:25:51;;;;;;;12.55;9.35;;;12.90;58.40;;;;;;5014203;28;20022;-81
2022/03/29 10:28:17;;;;;;;16.25;9.75;;;12.80;58.10;;;;;;5013885;28;20046;-82
2022/03/29 10:30:43;;;;;;;12.48;9.18;;;12.70;58.30;;;;;;5012850;28;20076;-83
2022/03/29 10:33:19;;;;;;;13.80;9.70;;;12.70;58.40;;;;;;5015046;28;20033;-82
2022/03/29 10:36:09;;;;;;;16.83;9.48;;;12.80;58.50;;;;;;5015180;28;20055;-82
2022/03/29 10:41:33;;;;;;;10.95;7.32;;;12.80;58.60;;;;;;5012641;28;20022;-83
2022/03/29 10:44:08;;;;;;;16.40;8.10;;;12.90;58.40;;;;;;5014250;28;20065;-83
2022/03/29 10:46:51;;;;;;;13.38;9.05;;;12.90;58.60;;;;;;5014014;28;20034;-83
2022/03/29 10:49:31;;;;;;;14.38;8.82;;;12.90;58.50;;;;;;5013193;28;20045;-81
2022/03/29 10:52:05;;;;;;;16.48;8.70;;;12.90;58.10;;;;;;5013813;28;20029;-82
2022/03/29 10:54:41;;;;;;;12.50;7.63;;;12.90;58.10;;;;;;5015205;28;20387;-81
2022/03/29 10:57:31;;;;;;;14.55;8.43;;;13.00;58.00;;;;;;5015466;28;20024;-81
2022/03/29 11:00:11;;;;;;;14.15;8.30;;;12.90;58.50;;;;;;5015568;28;20430;-82
2022/03/29 11:02:38;;;;;;;15.23;8.15;;;12.90;57.90;;;;;;5015764;28;20447;-81
2022/03/29 11:05:09;;;;;;;8.18;5.70;;;12.90;57.50;;;;;;5014912;28;20121;-82
2022/03/29 11:07:52;;;;;;;9.93;6.57;;;12.90;57.50;;;;;;5013483;28;20041;-81
2022/03/29 11:10:23;;;;;;;10.05;5.65;;;12.90;57.60;;;;;;5013493;28;20194;-82
2022/03/29 11:12:51;;;;;;;8.60;5.88;;;12.80;57.10;;;;;;5013885;28;20022;-82
2022/03/29 11:15:32;;;;;;;10.73;5.72;;;12.70;57.90;;;;;;5014965;28;20046;-81
2022/03/29 11:17:58;;;;;;;11.18;6.95;;;12.70;57.70;;;;;;5015092;28;20032;-81
2022/03/29 11:20:34;;;;;;;14.88;7.72;;;12.80;58.30;;;;;;5013590;28;20038;-82
2022/03/29 11:23:00;;;;;;;9.57;5.63;;;12.90;57.90;;;;;;5013387;28;20388;-82
2022/03/29 11:25:27;;;;;;;12.45;7.35;;;12.90;57.40;;;;;;5013382;28;20030;-82
2022/03/29 11:27:53;;;;;;;13.60;7.80;;;13.10;57.60;;;;;;5013168;28;20107;-82
2022/03/29 11:30:19;;;;;;;11.45;7.57;;;13.10;57.30;;;;;;5013090;28;20025;-82
2022/03/29 11:32:46;;;;;;;13.75;7.13;;;13.00;57.00;;;;;;5013272;28;20026;-81
2022/03/29 11:35:12;;;;;;;13.55;7.93;;;13.10;57.30;;;;;;5014512;28;20037;-82
2022/03/29 11:37:40;;;;;;;13.73;7.53;;;13.00;56.80;;;;;;5014012;28;20053;-81
2022/03/29 11:40:09;;;;;;;10.20;6.90;;;13.10;57.30;;;;;;5014438;28;20501;-82
2022/03/29 11:42:59;;;;;;;12.98;9.02;;;13.20;56.80;;;;;;5015229;28;20026;-82
2022/03/29 11:45:30;;;;;;;13.27;8.50;;;13.30;56.70;;;;;;5015100;28;20072;-81
2022/03/29 11:48:02;;;;;;;13.50;8.50;;;13.30;56.40;;;;;;5012868;28;20054;-81
2022/03/29 11:50:31;;;;;;;13.85;9.32;;;13.30;56.60;;;;;;5015152;28;20068;-82
2022/03/29 11:52:57;;;;;;;15.48;9.95;;;13.30;56.30;;;;;;5013786;28;20112;-81
2022/03/29 11:55:23;;;;;;;15.57;11.00;;;13.30;56.70;;;;;;5014991;28;20057;-82
2022/03/29 11:57:49;;;;;;;13.85;8.90;;;13.30;56.80;;;;;;5013520;28;20036;-82
2022/03/29 12:00:26;;;;;;;16.90;10.85;;;13.20;56.30;;;;;;5014862;28;20104;-82
2022/03/29 12:02:52;;;;;;;14.77;9.10;;;13.30;56.80;;;;;;5014922;28;20022;-82
2022/03/29 12:05:27;;;;;;;17.35;9.65;;;13.20;56.10;;;;;;5014866;28;20368;-82
2022/03/29 12:08:03;;;;;;;17.88;10.27;;;13.30;57.10;;;;;;5013219;28;20057;-82
2022/03/29 12:10:34;;;;;;;18.38;10.52;;;13.40;57.10;;;;;;5014722;28;20481;-82
2022/03/29 12:13:03;;;;;;;18.50;10.52;;;13.50;56.40;;;;;;5014443;28;20260;-82
2022/03/29 12:15:29;;;;;;;14.68;8.98;;;13.50;55.80;;;;;;5014538;28;20447;-83
2022/03/29 12:18:40;;;;;;;15.40;9.77;;;13.60;54.50;;;;;;5014419;28;20028;-82
2022/03/29 12:20:45;;;;;;;9.93;6.93;;;13.60;53.30;;;;;;5014585;28;20508;-82
2022/03/29 12:23:27;;;;;;;15.85;7.65;;;13.60;53.40;;;;;;5014245;28;20033;-82
2022/03/29 12:25:53;;;;;;;14.20;8.00;;;13.70;52.20;;;;;;5014261;28;20105;-82
2022/03/29 12:28:21;;;;;;;12.15;7.82;;;13.80;53.00;;;;;;5013757;28;20018;-81
2022/03/29 12:30:47;;;;;;;13.07;8.00;;;13.70;52.60;;;;;;5014511;28;20109;-82
2022/03/29 12:33:14;;;;;;;11.02;7.78;;;13.70;51.90;;;;;;5014248;28;20479;-81
2022/03/29 12:35:39;;;;;;;14.32;8.05;;;13.70;51.80;;;;;;5014192;28;20018;-81
2022/03/29 12:38:09;;;;;;;11.98;8.23;;;13.80;52.00;;;;;;5014403;28;20087;-81
2022/03/29 12:40:34;;;;;;;12.35;8.23;;;13.70;51.40;;;;;;5014304;28;20056;-82
2022/03/29 12:43:08;;;;;;;16.05;7.93;;;13.60;51.20;;;;;;5014232;28;20097;-83
2022/03/29 12:45:36;;;;;;;10.13;6.97;;;13.60;51.50;;;;;;5014233;28;20041;-82
2022/03/29 12:48:03;;;;;;;12.50;7.30;;;13.50;51.30;;;;;;5013757;28;20393;-82
2022/03/29 12:50:30;;;;;;;7.57;6.20;;;13.50;50.70;;;;;;5013878;28;20037;-81
2022/03/29 12:53:04;;;;;;;9.73;7.10;;;13.30;49.50;;;;;;5012734;28;20033;-81